METAR Data
IDs: Format: Raw Decoded Include TAF

Data at: 2115 UTC 18 Sep 2018

KOOA 182055Z AUTO 08009G16KT 10SM OVC009 19/18 A2997 RMK AO2 60005 T01930184
KOOA 182035Z AUTO 07010KT 10SM OVC009 19/18 A2998 RMK AO2 T01900182
KOOA 182015Z AUTO 07009KT 10SM BKN009 BKN026 BKN039 19/18 A2998 RMK AO2 T01890184
KOOA 181955Z AUTO 09014G18KT 7SM -RA SCT009 SCT028 BKN044 18/18 A2997 RMK AO2 P0003 T01810176
KOOA 181935Z AUTO 08012G21KT 7SM -RA BKN080 BKN090 18/17 A2999 RMK AO2 P0002 T01780172
KOOA 181915Z AUTO 08014G22KT 10SM SCT013 SCT027 BKN090 18/17 A2998 RMK AO2 T01790172
KOOA 181855Z AUTO 09013G23KT 5SM -RA SCT034 BKN044 OVC050 18/17 A2999 RMK AO2 P0002 T01750168
KOOA 181835Z AUTO 06016G21KT 10SM -RA SCT030 BKN085 OVC120 18/17 A3001 RMK AO2 P0001 T01750167
KOOA 181815Z AUTO 07017G22KT 10SM -RA SCT019 BKN030 OVC120 18/17 A3002 RMK AO2 P0001 T01750167
KOOA 181755Z AUTO 05019G30KT 2SM RA SCT016 BKN022 OVC030 17/17 A3001 RMK AO2 P0017 60017 T01730165 10307 20173
KOOA 181735Z AUTO 05019G29KT 7SM +RA SCT010 BKN044 OVC050 18/17 A3001 RMK AO2 P0001 T01760165
KOOA 181715Z AUTO 05021G30KT 10SM RA SCT034 BKN040 OVC046 18/17 A3000 RMK AO2 T01810165
KOOA 181655Z AUTO 04020G32KT 10SM SCT022 OVC032 20/16 A2999 RMK AO2 T01950161
KOOA 181635Z AUTO 02031G35KT 5SM HZ SCT022 SCT034 BKN048 25/17 A2999 RMK AO2 T02460167
KOOA 181615Z AUTO 24009KT 10SM SCT048 SCT060 SCT070 30/21 A2993 RMK AO2 T02950211
KOOA 181555Z AUTO 25011KT 10SM SCT048 BKN060 BKN070 29/21 A2994 RMK AO2 T02890205
KOOA 181535Z AUTO 25007KT 10SM BKN065 29/21 A2995 RMK AO2 T02930208
KOOA 181515Z AUTO 23008KT 10SM CLR 28/21 A2994 RMK AO2 T02810207
KOOA 181455Z AUTO 23009KT 10SM CLR 28/20 A2994 RMK AO2 T02760204
KOOA 181435Z AUTO 24009KT 10SM CLR 27/20 A2993 RMK AO2 T02690202
KOOA 181415Z AUTO 22006KT 10SM CLR 26/20 A2993 RMK AO2 T02560200
KOOA 181355Z AUTO 21006KT 10SM CLR 24/20 A2994 RMK AO2 T02430199
KOOA 181335Z AUTO 20004KT 10SM CLR 23/20 A2994 RMK AO2 T02250195
KOOA 181315Z AUTO 19004KT 7SM CLR 21/19 A2995 RMK AO2 T02070188
KOOA 181255Z AUTO 17004KT 10SM CLR 20/18 A2995 RMK AO2 T01960183
KOOA 181235Z AUTO 17004KT 10SM CLR 19/18 A2995 RMK AO2 T01900179
KOOA 181215Z AUTO 17004KT 10SM CLR 18/17 A2995 RMK AO2 T01820174
KOOA 181155Z AUTO 16004KT 10SM CLR 18/17 A2995 RMK AO2 T01810171 10198 20178
KOOA 181135Z AUTO 16004KT 10SM CLR 18/17 A2996 RMK AO2 T01830172
KOOA 181115Z AUTO 16005KT 10SM CLR 18/17 A2995 RMK AO2 T01840172
KOOA 181055Z AUTO 16005KT 10SM CLR 18/17 A2994 RMK AO2 T01820172
KOOA 181035Z AUTO 16004KT 10SM CLR 18/17 A2994 RMK AO2 T01830172
KOOA 181015Z AUTO 16005KT 10SM CLR 18/17 A2994 RMK AO2 T01810172
KOOA 180955Z AUTO 16004KT 10SM CLR 18/17 A2995 RMK AO2 T01810173
KOOA 180935Z AUTO 15004KT 10SM CLR 18/17 A2995 RMK AO2 T01780170
KOOA 180915Z AUTO 15004KT 10SM CLR 18/17 A2996 RMK AO2 T01810172
KOOA 180855Z AUTO 15004KT 10SM CLR 18/17 A2996 RMK AO2 T01810173
KOOA 180835Z AUTO 15003KT 10SM CLR 18/17 A2996 RMK AO2 T01800171
KOOA 180815Z AUTO 15004KT 10SM CLR 18/17 A2996 RMK AO2 T01810173
KOOA 180755Z AUTO 00000KT 10SM CLR 19/18 A2996 RMK AO2 T01850175
KOOA 180735Z AUTO 12003KT 10SM CLR 19/18 A2996 RMK AO2 T01910180
KOOA 180715Z AUTO 10004KT 10SM CLR 19/18 A2997 RMK AO2 T01900181
KOOA 180655Z AUTO 08004KT 10SM CLR 19/18 A2997 RMK AO2 T01880176
KOOA 180635Z AUTO 06004KT 10SM CLR 19/18 A2997 RMK AO2 T01890176
KOOA 180615Z AUTO 07003KT 10SM CLR 19/18 A2997 RMK AO2 T01910178
KOOA 180555Z AUTO 02005KT 10SM CLR 20/18 A2997 RMK AO2 T01990181 10277 20194 403250176
KOOA 180535Z AUTO 01005KT 10SM CLR 20/18 A2997 RMK AO2 T01950178
KOOA 180515Z AUTO 00000KT 10SM CLR 20/18 A2996 RMK AO2 T02000180
KOOA 180455Z AUTO 22003KT 10SM CLR 20/18 A2996 RMK AO2 T02030183
KOOA 180435Z AUTO 21003KT 10SM CLR 20/18 A2996 RMK AO2 T02020182
KOOA 180415Z AUTO 20004KT 10SM CLR 20/18 A2996 RMK AO2 T02020182
KOOA 180355Z AUTO 19004KT 10SM CLR 21/18 A2995 RMK AO2 T02050183
KOOA 180335Z AUTO 19005KT 10SM CLR 21/18 A2995 RMK AO2 T02060184
KOOA 180315Z AUTO 19005KT 10SM CLR 21/18 A2995 RMK AO2 T02070184
KOOA 180255Z AUTO 19005KT 10SM CLR 21/19 A2995 RMK AO2 T02140185
KOOA 180235Z AUTO 20004KT 10SM CLR 22/18 A2995 RMK AO2 T02150184
KOOA 180215Z AUTO 18004KT 10SM CLR 22/19 A2995 RMK AO2 T02210185
KOOA 180155Z AUTO 19005KT 7SM CLR 22/18 A2995 RMK AO2 T02200183
KOOA 180135Z AUTO 19004KT 10SM CLR 23/18 A2994 RMK AO2 T02250182
KOOA 180115Z AUTO 20004KT 10SM CLR 24/18 A2993 RMK AO2 T02350184
KOOA 180055Z AUTO 19005KT 10SM CLR 24/19 A2992 RMK AO2 T02380185
KOOA 180035Z AUTO 19005KT 10SM CLR 25/19 A2992 RMK AO2 T02470185
KOOA 180015Z AUTO 20005KT 10SM CLR 26/19 A2992 RMK AO2 T02600187
KOOA 172355Z AUTO 21005KT 10SM CLR 28/18 A2992 RMK AO2 T02780181 10325 20278
KOOA 172335Z AUTO 24006KT 10SM CLR 29/17 A2992 RMK AO2 T02940173
KOOA 172315Z AUTO 23008KT 10SM CLR 30/17 A2991 RMK AO2 T03030170
KOOA 172255Z AUTO 23008KT 10SM CLR 31/17 A2992 RMK AO2 T03080172
KOOA 172235Z AUTO 23008KT 10SM CLR 31/17 A2992 RMK AO2 T03120169
KOOA 172215Z AUTO 26007KT 10SM CLR 32/17 A2992 RMK AO2 T03150170
KOOA 172155Z AUTO 23010KT 10SM CLR 32/17 A2992 RMK AO2 T03180168
KOOA 172135Z AUTO 26009G15KT 10SM CLR 32/17 A2992 RMK AO2 T03200171
KOOA 172115Z AUTO 26009KT 10SM SCT060 SCT090 32/17 A2992 RMK AO2 T03210172
KOOA 172055Z AUTO 24006KT 10SM SCT060 32/17 A2992 RMK AO2 T03210174
KOOA 172035Z AUTO 22005G16KT 10SM SCT060 32/17 A2992 RMK AO2 T03190173
KOOA 172015Z AUTO 25008KT 210V270 10SM SCT065 32/17 A2993 RMK AO2 T03230174
KOOA 171955Z AUTO 27008KT 10SM BKN065 BKN090 31/17 A2993 RMK AO2 T03120171
KOOA 171935Z AUTO 27006KT 10SM OVC055 30/18 A2993 RMK AO2 T03030176
KOOA 171915Z AUTO 23010G15KT 10SM BKN055 OVC070 30/17 A2994 RMK AO2 T03040168
KOOA 171855Z AUTO 24010KT 10SM BKN055 OVC070 30/17 A2994 RMK AO2 T03000173
KOOA 171835Z AUTO 25005KT 10SM SCT055 BKN065 30/17 A2994 RMK AO2 T02950173
KOOA 171815Z AUTO 23006KT 10SM SCT085 30/18 A2995 RMK AO2 T02970177
KOOA 171755Z AUTO 24008G15KT 10SM SCT060 SCT070 SCT085 31/17 A2995 RMK AO2 T03100166 10313 20183
KOOA 171735Z AUTO 24009G15KT 10SM SCT060 SCT070 SCT080 30/17 A2996 RMK AO2 T03000173
KOOA 171715Z AUTO 27009KT 10SM SCT070 BKN080 31/17 A2996 RMK AO2 T03130166
KOOA 171655Z AUTO 25008KT 10SM SCT070 31/16 A2997 RMK AO2 T03060162
KOOA 171635Z AUTO 25007KT 10SM CLR 30/17 A2997 RMK AO2 T03040166
KOOA 171615Z AUTO 25005KT 10SM SCT065 SCT075 28/18 A2998 RMK AO2 T02800178
KOOA 171555Z AUTO 29005KT 10SM BKN065 OVC080 28/18 A2998 RMK AO2 T02810180
KOOA 171535Z AUTO 26007KT 10SM OVC065 29/18 A2999 RMK AO2 T02870182
KOOA 171515Z AUTO 27005KT 10SM BKN065 27/19 A2998 RMK AO2 T02740186
KOOA 171455Z AUTO 26006KT 10SM SCT065 26/18 A2998 RMK AO2 T02560184
KOOA 171435Z AUTO 28006KT 10SM SCT065 25/19 A2998 RMK AO2 T02490187
KOOA 171415Z AUTO 25005KT 10SM CLR 24/19 A2998 RMK AO2 T02440194
KOOA 171355Z AUTO 24003KT 10SM SCT090 22/19 A2998 RMK AO2 T02210190
KOOA 171335Z AUTO 24003KT 10SM BKN090 22/19 A2998 RMK AO2 T02190185
KOOA 171315Z AUTO 00000KT 10SM SCT090 20/19 A2998 RMK AO2 T02020185
KOOA 171255Z AUTO 00000KT 10SM CLR 19/18 A2998 RMK AO2 T01930180
KOOA 171235Z AUTO 18003KT 10SM SCT065 19/18 A2998 RMK AO2 T01890177
KOOA 171215Z AUTO 19004KT 10SM SCT065 BKN090 18/17 A2997 RMK AO2 T01840171
KOOA 171155Z AUTO 19003KT 10SM SCT065 OVC090 18/17 A2997 RMK AO2 T01840171 10193 20176
KOOA 171135Z AUTO 18003KT 10SM SCT065 BKN090 18/17 A2997 RMK AO2 T01820170
KOOA 171115Z AUTO 16003KT 10SM SCT065 SCT090 18/17 A2997 RMK AO2 T01820171
KOOA 171055Z AUTO 18003KT 10SM SCT065 SCT090 18/17 A2997 RMK AO2 T01770168
KOOA 171035Z AUTO 19003KT 10SM SCT090 18/17 A2997 RMK AO2 T01760168
KOOA 171015Z AUTO 18003KT 10SM SCT090 18/17 A2997 RMK AO2 T01780168
KOOA 170955Z AUTO 18003KT 10SM CLR 18/17 A2997 RMK AO2 T01800170
KOOA 170935Z AUTO 18004KT 10SM SCT065 SCT080 18/17 A2997 RMK AO2 T01810170